createdAt,value
2022-08-17T00:00:34.323Z,19.52
2022-08-17T00:01:26.249Z,19.49
2022-08-17T00:02:27.107Z,19.49
2022-08-17T00:03:26.156Z,19.44
2022-08-17T00:04:26.164Z,19.56
2022-08-17T00:05:26.188Z,19.45
2022-08-17T00:06:26.216Z,19.45
2022-08-17T00:07:26.233Z,19.44
2022-08-17T00:08:26.256Z,19.39
2022-08-17T00:09:26.274Z,19.48
2022-08-17T00:10:26.298Z,19.44
2022-08-17T00:11:26.321Z,19.48
2022-08-17T00:12:42.787Z,19.42
2022-08-17T00:13:26.364Z,19.35
2022-08-17T00:14:26.388Z,19.37
2022-08-17T00:15:26.408Z,19.38
2022-08-17T00:16:51.921Z,19.41
2022-08-17T00:17:26.453Z,19.39
2022-08-17T00:19:01.314Z,19.38
2022-08-17T00:19:26.493Z,19.39
2022-08-17T00:20:30.516Z,19.34
2022-08-17T00:21:26.539Z,19.30
2022-08-17T00:22:31.324Z,19.32
2022-08-17T00:23:26.583Z,19.26
2022-08-17T00:24:26.605Z,19.26
2022-08-17T00:25:26.628Z,19.24
2022-08-17T00:26:43.512Z,19.24
2022-08-17T00:27:26.670Z,19.27
2022-08-17T00:28:26.693Z,19.23
2022-08-17T00:29:26.712Z,19.27
2022-08-17T00:30:26.737Z,19.30
2022-08-17T00:31:26.759Z,19.22
2022-08-17T00:33:12.019Z,19.29
2022-08-17T00:33:27.055Z,19.30
2022-08-17T00:34:27.901Z,19.27
2022-08-17T00:35:26.848Z,19.19
2022-08-17T00:36:26.867Z,19.16
2022-08-17T00:37:26.889Z,19.20
2022-08-17T00:38:26.914Z,19.26
2022-08-17T00:39:27.001Z,19.17
2022-08-17T00:40:26.957Z,19.16
2022-08-17T00:41:26.978Z,19.22
2022-08-17T00:42:30.941Z,19.20
2022-08-17T00:43:27.022Z,19.22
2022-08-17T00:44:28.865Z,19.12
2022-08-17T00:45:27.068Z,19.22
2022-08-17T00:46:27.088Z,19.12
2022-08-17T00:47:27.113Z,19.12
2022-08-17T00:48:29.930Z,19.19
2022-08-17T00:49:27.153Z,19.22
2022-08-17T00:50:27.179Z,19.11
2022-08-17T00:51:27.198Z,19.16
2022-08-17T00:52:27.218Z,19.20
2022-08-17T00:53:27.237Z,19.11
2022-08-17T00:54:27.262Z,19.12
2022-08-17T00:55:27.285Z,19.11
2022-08-17T00:56:27.308Z,19.12
2022-08-17T00:57:27.329Z,19.09
2022-08-17T00:58:35.729Z,19.07
2022-08-17T00:59:27.374Z,19.09
2022-08-17T01:00:27.394Z,19.05
2022-08-17T01:01:27.455Z,19.04
2022-08-17T01:02:27.438Z,19.09
2022-08-17T01:03:27.458Z,19.08
2022-08-17T01:04:27.483Z,19.12
2022-08-17T01:05:27.502Z,18.98
2022-08-17T01:06:27.523Z,19.09
2022-08-17T01:07:27.546Z,19.11
2022-08-17T01:08:27.569Z,18.96
2022-08-17T01:09:27.590Z,18.94
2022-08-17T01:11:00.677Z,18.94
2022-08-17T01:11:27.634Z,18.96
2022-08-17T01:12:27.653Z,18.96
2022-08-17T01:13:27.683Z,19.00
2022-08-17T01:14:27.698Z,19.00
2022-08-17T01:15:27.721Z,18.92
2022-08-17T01:16:27.743Z,18.96
2022-08-17T01:17:27.764Z,18.91
2022-08-17T01:18:27.785Z,18.97
2022-08-17T01:19:27.807Z,18.94
2022-08-17T01:20:27.831Z,18.88
2022-08-17T01:21:27.852Z,18.91
2022-08-17T01:22:27.871Z,18.86
2022-08-17T01:23:27.897Z,18.89
2022-08-17T01:24:27.921Z,18.88
2022-08-17T01:25:27.939Z,18.82
2022-08-17T01:26:27.961Z,18.81
2022-08-17T01:27:27.981Z,18.85
2022-08-17T01:28:53.109Z,18.85
2022-08-17T01:29:28.025Z,18.83
2022-08-17T01:30:58.091Z,18.82
2022-08-17T01:31:28.071Z,18.86
2022-08-17T01:32:28.101Z,18.81
2022-08-17T01:33:28.113Z,18.81
2022-08-17T01:34:43.023Z,18.73
2022-08-17T01:35:28.162Z,18.73
2022-08-17T01:36:28.177Z,18.76
2022-08-17T01:37:28.197Z,18.79
2022-08-17T01:38:28.220Z,18.82
2022-08-17T01:39:28.256Z,18.78
2022-08-17T01:40:28.264Z,18.76
2022-08-17T01:41:28.316Z,18.81
2022-08-17T01:42:28.307Z,18.73
2022-08-17T01:43:28.327Z,18.83
2022-08-17T01:44:28.351Z,18.70
2022-08-17T01:45:28.370Z,18.66
2022-08-17T01:46:28.392Z,18.66
2022-08-17T01:47:28.415Z,18.63
2022-08-17T01:48:28.436Z,18.70
2022-08-17T01:49:28.457Z,18.67
2022-08-17T01:50:28.482Z,18.67
2022-08-17T01:51:28.501Z,18.64
2022-08-17T01:52:28.521Z,18.64
2022-08-17T01:53:28.544Z,18.61
2022-08-17T01:54:28.566Z,18.64
2022-08-17T01:55:28.587Z,18.70
2022-08-17T01:56:28.610Z,18.67
2022-08-17T01:57:28.631Z,18.64
2022-08-17T01:58:28.653Z,18.66
2022-08-17T01:59:28.672Z,18.66
2022-08-17T02:00:28.768Z,18.61
2022-08-17T02:01:28.746Z,18.60
2022-08-17T02:02:30.557Z,18.60
2022-08-17T02:03:28.761Z,18.55
2022-08-17T02:04:28.783Z,18.63
2022-08-17T02:05:28.804Z,18.48
2022-08-17T02:06:28.825Z,18.52
2022-08-17T02:07:28.845Z,18.51
2022-08-17T02:08:38.969Z,18.45
2022-08-17T02:09:29.822Z,18.49
2022-08-17T02:10:34.001Z,18.51
2022-08-17T02:11:28.932Z,18.48
2022-08-17T02:12:37.586Z,18.45
2022-08-17T02:13:28.977Z,18.46
2022-08-17T02:14:28.996Z,18.49
2022-08-17T02:15:29.018Z,18.48
2022-08-17T02:16:29.040Z,18.43
2022-08-17T02:17:29.063Z,18.42
2022-08-17T02:18:29.083Z,18.43
2022-08-17T02:19:29.103Z,18.46
2022-08-17T02:20:41.837Z,18.36
2022-08-17T02:21:29.147Z,18.41
2022-08-17T02:22:29.169Z,18.45
2022-08-17T02:23:29.191Z,18.39
2022-08-17T02:24:59.963Z,18.39
2022-08-17T02:25:29.234Z,18.41
2022-08-17T02:26:29.255Z,18.41
2022-08-17T02:27:29.278Z,18.36
2022-08-17T02:28:29.304Z,18.41
2022-08-17T02:29:29.321Z,18.34
2022-08-17T02:31:00.334Z,18.36
2022-08-17T02:31:29.361Z,18.36
2022-08-17T02:32:29.384Z,18.37
2022-08-17T02:33:42.644Z,18.31
2022-08-17T02:34:29.426Z,18.41
2022-08-17T02:35:29.448Z,18.36
2022-08-17T02:36:29.469Z,18.34
2022-08-17T02:37:29.494Z,18.37
2022-08-17T02:38:29.515Z,18.28
2022-08-17T02:39:29.572Z,18.28
2022-08-17T02:40:36.259Z,18.26
2022-08-17T02:41:29.580Z,18.28
2022-08-17T02:42:29.599Z,18.21
2022-08-17T02:43:29.626Z,18.31
2022-08-17T02:44:39.075Z,18.28
2022-08-17T02:45:29.662Z,18.34
2022-08-17T02:46:29.687Z,18.21
2022-08-17T02:47:29.710Z,18.41
2022-08-17T02:48:31.596Z,18.26
2022-08-17T02:49:29.749Z,18.27
2022-08-17T02:50:29.775Z,18.30
2022-08-17T02:51:29.795Z,18.28
2022-08-17T02:52:43.680Z,18.24
2022-08-17T02:53:35.914Z,18.28
2022-08-17T02:54:40.500Z,18.27
2022-08-17T02:55:29.883Z,18.21
2022-08-17T02:56:29.901Z,18.15
2022-08-17T02:57:29.921Z,18.16
2022-08-17T02:58:34.999Z,18.09
2022-08-17T02:59:29.963Z,18.12
2022-08-17T03:00:29.985Z,18.11
2022-08-17T03:01:30.060Z,18.12
2022-08-17T03:02:30.035Z,18.15
2022-08-17T03:03:30.056Z,18.19
2022-08-17T03:04:30.072Z,18.16
2022-08-17T03:05:30.099Z,18.09
2022-08-17T03:06:30.124Z,18.09
2022-08-17T03:07:30.134Z,18.03
2022-08-17T03:08:30.170Z,18.03
2022-08-17T03:09:30.176Z,18.00
2022-08-17T03:10:30.196Z,18.02
2022-08-17T03:11:30.219Z,18.00
2022-08-17T03:12:30.243Z,18.05
2022-08-17T03:13:30.263Z,18.08
2022-08-17T03:14:30.283Z,18.03
2022-08-17T03:15:30.307Z,18.03
2022-08-17T03:16:30.325Z,18.05
2022-08-17T03:17:30.348Z,18.06
2022-08-17T03:18:30.368Z,17.98
2022-08-17T03:19:30.389Z,17.91
2022-08-17T03:20:30.412Z,17.91
2022-08-17T03:21:30.432Z,18.03
2022-08-17T03:22:36.050Z,17.91
2022-08-17T03:23:30.485Z,17.95
2022-08-17T03:24:30.499Z,17.91
2022-08-17T03:25:30.518Z,17.90
2022-08-17T03:26:30.538Z,17.91
2022-08-17T03:27:30.560Z,17.91
2022-08-17T03:28:30.582Z,17.97
2022-08-17T03:29:30.606Z,17.93
2022-08-17T03:30:30.624Z,17.88
2022-08-17T03:31:30.644Z,17.90
2022-08-17T03:32:30.668Z,17.95
2022-08-17T03:33:30.688Z,17.90
2022-08-17T03:34:30.707Z,17.91
2022-08-17T03:35:30.735Z,17.93
2022-08-17T03:36:30.761Z,17.91
2022-08-17T03:37:30.773Z,17.93
2022-08-17T03:38:39.404Z,17.91
2022-08-17T03:39:30.827Z,17.88
2022-08-17T03:40:55.516Z,17.87
2022-08-17T03:41:30.858Z,17.90
2022-08-17T03:42:32.071Z,17.90
2022-08-17T03:43:30.908Z,17.87
2022-08-17T03:44:30.921Z,17.90
2022-08-17T03:45:30.943Z,17.90
2022-08-17T03:46:34.558Z,17.87
2022-08-17T03:47:30.985Z,17.80
2022-08-17T03:48:31.011Z,17.88
2022-08-17T03:49:31.027Z,17.86
2022-08-17T03:50:31.049Z,17.84
2022-08-17T03:51:33.464Z,17.84
2022-08-17T03:52:31.090Z,17.87
2022-08-17T03:53:31.113Z,17.88
2022-08-17T03:54:31.134Z,17.82
2022-08-17T03:55:36.039Z,17.82
2022-08-17T03:56:31.174Z,17.86
2022-08-17T03:57:31.198Z,17.84
2022-08-17T03:58:31.220Z,17.87
2022-08-17T03:59:31.239Z,17.87
2022-08-17T04:00:31.260Z,17.84
2022-08-17T04:01:31.323Z,17.84
2022-08-17T04:02:31.302Z,17.84
2022-08-17T04:03:31.323Z,17.87
2022-08-17T04:04:31.344Z,17.84
2022-08-17T04:05:31.366Z,17.87
2022-08-17T04:06:31.391Z,17.88
2022-08-17T04:07:31.408Z,17.87
2022-08-17T04:08:31.430Z,17.93
2022-08-17T04:09:31.463Z,17.84
2022-08-17T04:10:31.470Z,17.88
2022-08-17T04:11:31.493Z,17.86
2022-08-17T04:12:31.513Z,17.88
2022-08-17T04:13:31.543Z,17.88
2022-08-17T04:14:31.558Z,17.87
2022-08-17T04:15:31.579Z,17.93
2022-08-17T04:16:31.607Z,17.93
2022-08-17T04:17:31.619Z,17.94
2022-08-17T04:18:31.644Z,17.93
2022-08-17T04:19:31.663Z,17.90
2022-08-17T04:20:31.685Z,17.95
2022-08-17T04:21:31.708Z,17.94
2022-08-17T04:22:34.247Z,17.98
2022-08-17T04:23:31.748Z,18.03
2022-08-17T04:24:31.773Z,18.02
2022-08-17T04:25:31.791Z,18.05
2022-08-17T04:26:52.860Z,18.02
2022-08-17T04:27:31.847Z,18.02
2022-08-17T04:28:31.854Z,18.12
2022-08-17T04:29:54.190Z,18.05
2022-08-17T04:30:31.899Z,18.11
2022-08-17T04:31:31.922Z,18.19
2022-08-17T04:33:03.604Z,18.15
2022-08-17T04:33:31.964Z,18.13
2022-08-17T04:34:31.997Z,18.15
2022-08-17T04:35:32.003Z,18.19
2022-08-17T04:36:32.041Z,18.24
2022-08-17T04:37:32.054Z,18.27
2022-08-17T04:38:32.072Z,18.23
2022-08-17T04:39:33.884Z,18.30
2022-08-17T04:40:32.112Z,18.31
2022-08-17T04:41:32.132Z,18.37
2022-08-17T04:42:32.192Z,18.24
2022-08-17T04:43:32.174Z,18.28
2022-08-17T04:44:37.417Z,18.24
2022-08-17T04:45:32.608Z,18.24
2022-08-17T04:46:32.238Z,18.27
2022-08-17T04:47:32.262Z,18.31
2022-08-17T04:48:36.439Z,18.37
2022-08-17T04:49:32.304Z,18.36
2022-08-17T04:50:32.329Z,18.42
2022-08-17T04:51:32.348Z,18.41
2022-08-17T04:52:43.242Z,18.39
2022-08-17T04:53:32.393Z,18.49
2022-08-17T04:54:32.412Z,18.53
2022-08-17T04:55:32.450Z,18.55
2022-08-17T04:56:32.456Z,18.48
2022-08-17T04:57:39.450Z,18.51
2022-08-17T04:58:32.499Z,18.63
2022-08-17T04:59:32.521Z,18.63
2022-08-17T05:00:32.543Z,18.57
2022-08-17T05:01:32.594Z,18.60
2022-08-17T05:02:32.584Z,18.64
2022-08-17T05:03:32.607Z,18.64
2022-08-17T05:04:34.853Z,18.67
2022-08-17T05:05:32.651Z,18.66
2022-08-17T05:06:32.672Z,18.81
2022-08-17T05:07:32.695Z,18.81
2022-08-17T05:08:32.714Z,18.78
2022-08-17T05:09:32.737Z,18.76
2022-08-17T05:10:32.759Z,18.88
2022-08-17T05:11:32.784Z,18.83
2022-08-17T05:12:32.804Z,18.83
2022-08-17T05:13:32.825Z,18.78
2022-08-17T05:14:33.883Z,18.91
2022-08-17T05:15:33.207Z,18.88
2022-08-17T05:16:32.889Z,18.94
2022-08-17T05:17:32.914Z,18.89
2022-08-17T05:18:32.935Z,19.01
2022-08-17T05:19:32.958Z,18.97
2022-08-17T05:20:32.979Z,18.98
2022-08-17T05:21:33.002Z,19.05
2022-08-17T05:22:33.025Z,19.08
2022-08-17T05:23:41.858Z,19.07
2022-08-17T05:24:38.559Z,19.07
2022-08-17T05:25:34.547Z,19.11
2022-08-17T05:26:33.110Z,19.16
2022-08-17T05:27:35.454Z,19.24
2022-08-17T05:28:33.158Z,19.24
2022-08-17T05:29:35.334Z,19.26
2022-08-17T05:30:33.201Z,19.27
2022-08-17T05:31:33.221Z,19.30
2022-08-17T05:32:38.614Z,19.38
2022-08-17T05:33:33.273Z,19.30
2022-08-17T05:34:33.289Z,19.32
2022-08-17T05:35:33.310Z,19.45
2022-08-17T05:36:41.591Z,19.42
2022-08-17T05:37:33.355Z,19.44
2022-08-17T05:38:33.379Z,19.56
2022-08-17T05:39:33.438Z,19.55
2022-08-17T05:40:33.423Z,19.60
2022-08-17T05:41:33.445Z,19.62
2022-08-17T05:42:33.467Z,19.59
2022-08-17T05:43:33.488Z,19.67
2022-08-17T05:44:33.512Z,19.66
2022-08-17T05:45:54.557Z,19.74
2022-08-17T05:46:33.557Z,19.78
2022-08-17T05:47:33.579Z,19.79
2022-08-17T05:48:39.264Z,19.77
2022-08-17T05:49:33.626Z,19.90
2022-08-17T05:50:33.648Z,19.96
2022-08-17T05:51:33.670Z,20.02
2022-08-17T05:52:33.693Z,19.99
2022-08-17T05:53:35.167Z,20.07
2022-08-17T05:54:33.737Z,20.15
2022-08-17T05:55:33.760Z,20.18
2022-08-17T05:56:33.782Z,20.24
2022-08-17T05:57:33.805Z,20.18
2022-08-17T05:58:33.829Z,20.24
2022-08-17T05:59:33.850Z,20.33
2022-08-17T06:00:33.874Z,20.42
2022-08-17T06:01:33.930Z,20.39
2022-08-17T06:02:33.931Z,20.49
2022-08-17T06:03:33.942Z,20.48
2022-08-17T06:04:33.967Z,20.55
2022-08-17T06:05:34.002Z,20.55
2022-08-17T06:06:34.011Z,20.73
2022-08-17T06:07:34.035Z,20.73
2022-08-17T06:08:34.064Z,20.74
2022-08-17T06:09:34.171Z,20.85
2022-08-17T06:10:34.103Z,20.86
2022-08-17T06:11:35.294Z,20.82
2022-08-17T06:12:34.148Z,20.90
2022-08-17T06:13:34.174Z,20.92
2022-08-17T06:14:34.196Z,20.95
2022-08-17T06:15:34.219Z,21.00
2022-08-17T06:16:34.836Z,21.11
2022-08-17T06:17:34.266Z,21.19
2022-08-17T06:18:34.290Z,21.26
2022-08-17T06:19:34.317Z,21.22
2022-08-17T06:20:34.347Z,21.30
2022-08-17T06:21:34.358Z,21.37
2022-08-17T06:22:34.382Z,21.40
2022-08-17T06:23:34.405Z,21.53
2022-08-17T06:24:34.432Z,21.45
2022-08-17T06:25:34.452Z,21.50
2022-08-17T06:26:38.598Z,21.63
2022-08-17T06:27:34.500Z,21.63
2022-08-17T06:28:34.519Z,21.75
2022-08-17T06:29:34.546Z,21.88
2022-08-17T06:30:58.382Z,21.97
2022-08-17T06:31:34.597Z,22.03
2022-08-17T06:32:34.617Z,22.21
2022-08-17T06:33:34.641Z,22.37
2022-08-17T06:34:34.664Z,22.56
2022-08-17T06:35:34.693Z,22.77
2022-08-17T06:36:34.712Z,22.93
2022-08-17T06:37:34.735Z,23.16
2022-08-17T06:38:38.351Z,23.40
2022-08-17T06:39:34.819Z,23.59
2022-08-17T06:40:34.811Z,23.79
2022-08-17T06:41:37.802Z,23.95
2022-08-17T06:42:59.999Z,24.14
2022-08-17T06:43:34.885Z,24.38
2022-08-17T06:44:43.371Z,24.63
2022-08-17T06:45:34.934Z,24.82
2022-08-17T06:46:34.960Z,24.97
2022-08-17T06:47:34.988Z,25.22
2022-08-17T06:48:35.022Z,25.40
2022-08-17T06:49:35.041Z,25.68
2022-08-17T06:50:35.068Z,25.86
2022-08-17T06:51:35.094Z,26.04
2022-08-17T06:52:46.799Z,26.18
2022-08-17T06:53:35.147Z,26.42
2022-08-17T06:54:35.174Z,26.63
2022-08-17T06:55:38.186Z,26.74
2022-08-17T06:56:53.884Z,27.03
2022-08-17T06:57:35.254Z,27.25
2022-08-17T06:58:35.281Z,27.38
2022-08-17T06:59:54.263Z,27.66
2022-08-17T07:00:35.373Z,27.78
2022-08-17T07:01:35.419Z,28.03
2022-08-17T07:02:51.512Z,28.19
2022-08-17T07:03:35.420Z,28.38
2022-08-17T07:04:35.449Z,28.68
2022-08-17T07:05:35.475Z,28.75
2022-08-17T07:06:37.921Z,28.93
2022-08-17T07:07:35.533Z,29.07
2022-08-17T07:08:35.632Z,29.37
2022-08-17T07:09:35.589Z,29.44
2022-08-17T07:10:35.621Z,29.57
2022-08-17T07:11:35.649Z,29.83
2022-08-17T07:12:35.676Z,29.90
2022-08-17T07:13:35.706Z,30.06
2022-08-17T07:14:35.735Z,30.13
2022-08-17T07:15:35.764Z,30.33
2022-08-17T07:16:35.792Z,30.40
2022-08-17T07:17:57.734Z,30.33
2022-08-17T07:18:35.851Z,30.48
2022-08-17T07:19:35.902Z,30.70
2022-08-17T07:20:35.910Z,30.83
2022-08-17T07:21:35.958Z,30.91
2022-08-17T07:22:53.558Z,30.93
2022-08-17T07:23:35.999Z,31.14
2022-08-17T07:24:36.032Z,31.13
2022-08-17T07:25:36.068Z,31.26
2022-08-17T07:26:36.088Z,31.35
2022-08-17T07:27:36.119Z,31.54
2022-08-17T07:28:36.152Z,31.51
2022-08-17T07:29:36.180Z,31.59
2022-08-17T07:30:37.257Z,31.77
2022-08-17T07:31:36.242Z,31.72
2022-08-17T07:32:36.269Z,31.73
2022-08-17T07:33:36.302Z,31.92
2022-08-17T07:34:36.334Z,32.07
2022-08-17T07:35:40.804Z,32.11
2022-08-17T07:36:36.395Z,32.20
2022-08-17T07:37:36.427Z,32.29
2022-08-17T07:38:36.455Z,32.38
2022-08-17T07:39:36.532Z,32.41
2022-08-17T07:40:36.605Z,32.42
2022-08-17T07:41:53.493Z,32.42
2022-08-17T07:42:36.577Z,32.46
2022-08-17T07:43:36.610Z,32.37
2022-08-17T07:44:36.642Z,32.42
2022-08-17T07:45:36.676Z,32.49
2022-08-17T07:46:36.703Z,32.61
2022-08-17T07:47:36.735Z,32.59
2022-08-17T07:48:36.767Z,32.67
2022-08-17T07:49:36.798Z,32.76
2022-08-17T07:50:36.827Z,32.83
2022-08-17T07:51:36.873Z,32.86
2022-08-17T07:52:51.800Z,32.94
2022-08-17T07:53:36.924Z,32.93
2022-08-17T07:54:36.953Z,33.03
2022-08-17T07:55:36.986Z,33.03
2022-08-17T07:56:37.019Z,33.03
2022-08-17T07:57:37.054Z,33.10
2022-08-17T07:58:37.083Z,33.29
2022-08-17T07:59:37.114Z,33.22
2022-08-17T08:00:37.146Z,33.35
2022-08-17T08:01:39.542Z,33.39
2022-08-17T08:02:37.211Z,33.40
2022-08-17T08:03:37.243Z,33.36
2022-08-17T08:05:02.797Z,33.38
2022-08-17T08:05:49.785Z,33.31
2022-08-17T08:06:37.337Z,33.29
2022-08-17T08:07:37.370Z,33.20
2022-08-17T08:08:37.402Z,33.17
2022-08-17T08:09:37.434Z,33.23
2022-08-17T08:10:37.466Z,33.20
2022-08-17T08:11:41.241Z,33.08
2022-08-17T08:12:37.530Z,33.12
2022-08-17T08:13:37.574Z,33.17
2022-08-17T08:14:37.601Z,33.01
2022-08-17T08:15:37.626Z,32.88
2022-08-17T08:16:37.657Z,32.83
2022-08-17T08:17:37.689Z,32.66
2022-08-17T08:18:39.704Z,32.57
2022-08-17T08:19:37.751Z,32.48
2022-08-17T08:20:51.792Z,32.45
2022-08-17T08:21:37.816Z,32.27
2022-08-17T08:22:37.862Z,32.16
2022-08-17T08:23:37.875Z,32.04
2022-08-17T08:24:37.929Z,31.90
2022-08-17T08:25:37.937Z,31.70
2022-08-17T08:26:37.967Z,31.77
2022-08-17T08:27:37.998Z,31.64
2022-08-17T08:28:38.027Z,31.51
2022-08-17T08:29:38.059Z,31.60
2022-08-17T08:30:38.090Z,31.42
2022-08-17T08:31:42.156Z,31.37
2022-08-17T08:32:38.145Z,31.29
2022-08-17T08:33:38.178Z,31.26
2022-08-17T08:34:58.598Z,31.23
2022-08-17T08:35:38.235Z,31.22
2022-08-17T08:37:02.049Z,31.08
2022-08-17T08:37:42.630Z,31.05
2022-08-17T08:38:38.323Z,30.95
2022-08-17T08:39:38.412Z,30.93
2022-08-17T08:40:38.381Z,30.88
2022-08-17T08:41:38.409Z,30.73
2022-08-17T08:42:38.444Z,30.74
2022-08-17T08:43:38.466Z,30.63
2022-08-17T08:45:00.028Z,30.65
2022-08-17T08:45:38.526Z,30.55
2022-08-17T08:46:38.552Z,30.44
2022-08-17T08:47:38.584Z,30.48
2022-08-17T08:48:53.933Z,30.40
2022-08-17T08:50:02.512Z,30.43
2022-08-17T08:50:38.801Z,30.35
2022-08-17T08:51:38.703Z,30.33
2022-08-17T08:52:38.723Z,30.31
2022-08-17T08:53:38.753Z,30.29
2022-08-17T08:54:38.780Z,30.18
2022-08-17T08:55:38.824Z,30.14
2022-08-17T08:56:38.838Z,30.01
2022-08-17T08:57:38.865Z,30.06
2022-08-17T08:58:41.992Z,30.05
2022-08-17T08:59:41.895Z,30.01
2022-08-17T09:00:38.949Z,29.99
2022-08-17T09:01:39.047Z,30.03
2022-08-17T09:02:39.003Z,29.94
2022-08-17T09:03:52.324Z,30.01
2022-08-17T09:05:10.000Z,29.94
2022-08-17T09:05:39.094Z,29.98
2022-08-17T09:06:39.913Z,29.95
2022-08-17T09:07:39.144Z,29.95
2022-08-17T09:08:39.170Z,29.99
2022-08-17T09:09:39.199Z,29.90
2022-08-17T09:10:39.226Z,29.90
2022-08-17T09:12:02.963Z,29.86
2022-08-17T09:12:39.284Z,29.84
2022-08-17T09:13:39.311Z,29.86
2022-08-17T09:14:45.163Z,29.84
2022-08-17T09:15:39.366Z,29.80
2022-08-17T09:16:39.493Z,29.77
2022-08-17T09:17:39.423Z,29.83
2022-08-17T09:19:00.699Z,29.86
2022-08-17T09:19:39.478Z,29.84
2022-08-17T09:20:39.504Z,29.76
2022-08-17T09:21:47.698Z,29.94
2022-08-17T09:22:39.562Z,29.92
2022-08-17T09:23:39.589Z,29.92
2022-08-17T09:24:39.615Z,29.90
2022-08-17T09:25:39.645Z,29.90
2022-08-17T09:26:39.670Z,29.94
2022-08-17T09:27:39.700Z,29.95
2022-08-17T09:28:39.726Z,30.01
2022-08-17T09:29:39.754Z,30.05
2022-08-17T09:30:39.783Z,30.02
2022-08-17T09:31:46.410Z,29.99
2022-08-17T09:32:39.837Z,30.05
2022-08-17T09:33:39.878Z,30.13
2022-08-17T09:34:39.892Z,30.08
2022-08-17T09:35:39.920Z,30.13
2022-08-17T09:36:39.950Z,30.10
2022-08-17T09:37:39.976Z,30.03
2022-08-17T09:38:40.006Z,30.14
2022-08-17T09:39:40.075Z,30.21
2022-08-17T09:40:40.058Z,30.16
2022-08-17T09:41:40.087Z,30.16
2022-08-17T09:42:40.116Z,30.31
2022-08-17T09:43:40.142Z,30.32
2022-08-17T09:44:40.174Z,30.33
2022-08-17T09:45:40.201Z,30.39
2022-08-17T09:46:40.227Z,30.46
2022-08-17T09:47:40.256Z,30.39
2022-08-17T09:48:40.283Z,30.44
2022-08-17T09:49:40.310Z,30.49
2022-08-17T09:51:03.487Z,30.61
2022-08-17T09:51:40.368Z,30.56
2022-08-17T09:52:40.395Z,30.58
2022-08-17T09:53:40.424Z,30.70
2022-08-17T09:54:40.773Z,30.69
2022-08-17T09:55:40.480Z,30.80
2022-08-17T09:56:46.063Z,30.89
2022-08-17T09:57:40.538Z,30.91
2022-08-17T09:58:40.568Z,30.93
2022-08-17T09:59:40.593Z,30.93
2022-08-17T10:00:40.621Z,31.07
2022-08-17T10:01:40.728Z,31.00
2022-08-17T10:02:40.680Z,31.10
2022-08-17T10:03:40.708Z,31.10
2022-08-17T10:04:40.736Z,31.15
2022-08-17T10:05:40.768Z,31.37
2022-08-17T10:06:40.792Z,31.35
2022-08-17T10:07:40.822Z,31.45
2022-08-17T10:08:40.852Z,31.39
2022-08-17T10:09:40.882Z,31.59
2022-08-17T10:10:41.875Z,31.62
2022-08-17T10:11:44.825Z,31.50
2022-08-17T10:12:46.418Z,31.79
2022-08-17T10:13:41.000Z,31.73
2022-08-17T10:14:43.997Z,31.81
2022-08-17T10:15:42.565Z,32.04
2022-08-17T10:16:41.088Z,32.08
2022-08-17T10:17:41.128Z,32.02
2022-08-17T10:18:41.148Z,32.19
2022-08-17T10:19:43.994Z,32.23
2022-08-17T10:20:41.210Z,32.24
2022-08-17T10:21:41.241Z,32.26
2022-08-17T10:22:41.273Z,32.42
2022-08-17T10:23:41.303Z,32.44
2022-08-17T10:24:41.335Z,32.49
2022-08-17T10:25:56.151Z,32.61
2022-08-17T10:26:56.411Z,32.72
2022-08-17T10:27:41.430Z,32.93
2022-08-17T10:28:41.461Z,33.00
2022-08-17T10:29:48.965Z,33.13
2022-08-17T10:30:41.526Z,33.23
2022-08-17T10:31:41.564Z,33.36
2022-08-17T10:32:41.606Z,33.39
2022-08-17T10:33:41.624Z,33.54
2022-08-17T10:34:41.973Z,33.55
2022-08-17T10:35:41.689Z,33.89
2022-08-17T10:36:41.729Z,33.94
2022-08-17T10:37:41.765Z,34.06
2022-08-17T10:38:41.791Z,34.41
2022-08-17T10:39:51.959Z,34.47
2022-08-17T10:40:41.859Z,34.65
2022-08-17T10:41:41.894Z,34.83
2022-08-17T10:42:41.928Z,34.97
2022-08-17T10:43:41.964Z,35.16
2022-08-17T10:44:42.000Z,35.38
2022-08-17T10:45:42.035Z,35.31
2022-08-17T10:46:42.069Z,35.41
2022-08-17T10:47:54.917Z,35.47
2022-08-17T10:48:42.140Z,35.56
2022-08-17T10:49:42.226Z,35.76
2022-08-17T10:50:42.212Z,35.88
2022-08-17T10:51:42.257Z,35.93
2022-08-17T10:52:42.288Z,36.09
2022-08-17T10:53:42.321Z,36.18
2022-08-17T10:54:42.357Z,36.48
2022-08-17T10:55:42.400Z,36.66
2022-08-17T10:56:42.430Z,36.97
2022-08-17T10:57:42.467Z,37.19
2022-08-17T10:58:42.504Z,37.47
2022-08-17T10:59:42.542Z,37.71
2022-08-17T11:00:42.612Z,37.98
2022-08-17T11:01:42.615Z,38.17
2022-08-17T11:02:42.654Z,38.25
2022-08-17T11:03:42.692Z,38.42
2022-08-17T11:04:42.730Z,38.57
2022-08-17T11:05:43.978Z,38.88
2022-08-17T11:06:42.808Z,39.05
2022-08-17T11:07:42.847Z,39.05
2022-08-17T11:08:42.885Z,39.27
2022-08-17T11:09:42.926Z,39.30
2022-08-17T11:10:42.964Z,39.48
2022-08-17T11:11:43.003Z,39.67
2022-08-17T11:12:43.101Z,39.71
2022-08-17T11:13:43.083Z,39.70
2022-08-17T11:14:43.121Z,39.91
2022-08-17T11:15:43.161Z,40.01
2022-08-17T11:16:43.202Z,40.10
2022-08-17T11:17:43.242Z,40.12
2022-08-17T11:18:43.280Z,40.07
2022-08-17T11:19:43.318Z,39.94
2022-08-17T11:20:43.359Z,39.91
2022-08-17T11:21:43.400Z,39.68
2022-08-17T11:22:43.444Z,39.57
2022-08-17T11:23:43.477Z,39.57
2022-08-17T11:24:45.548Z,39.57
2022-08-17T11:25:43.554Z,39.56
2022-08-17T11:26:43.592Z,39.52
2022-08-17T11:27:43.631Z,39.56
2022-08-17T11:28:43.668Z,39.59
2022-08-17T11:29:43.706Z,39.59
2022-08-17T11:30:44.394Z,39.52
2022-08-17T11:31:43.794Z,39.51
2022-08-17T11:32:47.696Z,39.61
2022-08-17T11:33:43.858Z,39.73
2022-08-17T11:34:43.894Z,39.76
2022-08-17T11:35:43.932Z,39.83
2022-08-17T11:36:43.971Z,39.97
2022-08-17T11:37:44.007Z,40.02
2022-08-17T11:38:44.046Z,40.16
2022-08-17T11:39:44.122Z,40.22
2022-08-17T11:40:44.121Z,40.26
2022-08-17T11:41:44.161Z,40.31
2022-08-17T11:42:44.239Z,40.22
2022-08-17T11:43:44.237Z,40.08
2022-08-17T11:44:44.277Z,40.00
2022-08-17T11:45:44.314Z,40.00
2022-08-17T11:46:44.355Z,39.85
2022-08-17T11:47:56.990Z,39.93
2022-08-17T11:48:44.428Z,40.01
2022-08-17T11:49:44.466Z,40.07
2022-08-17T11:50:44.506Z,40.26
2022-08-17T11:51:44.542Z,40.48
2022-08-17T11:52:46.719Z,40.73
2022-08-17T11:53:44.620Z,40.73
2022-08-17T11:54:44.658Z,40.89
2022-08-17T11:55:45.101Z,41.04
2022-08-17T11:56:44.738Z,41.23
2022-08-17T11:57:44.776Z,41.30
2022-08-17T11:58:44.838Z,41.33
2022-08-17T11:59:44.900Z,41.27
2022-08-17T12:00:44.895Z,41.08
2022-08-17T12:01:44.932Z,40.95
2022-08-17T12:02:48.110Z,41.22
2022-08-17T12:03:53.940Z,41.30
2022-08-17T12:04:45.128Z,41.44
2022-08-17T12:05:45.094Z,41.55
2022-08-17T12:06:45.130Z,41.76
2022-08-17T12:07:45.169Z,41.90
2022-08-17T12:08:45.207Z,41.95
2022-08-17T12:09:45.249Z,42.06
2022-08-17T12:10:45.286Z,42.00
2022-08-17T12:11:55.430Z,41.84
2022-08-17T12:12:45.372Z,41.78
2022-08-17T12:13:45.405Z,41.63
2022-08-17T12:15:08.805Z,41.48
2022-08-17T12:15:45.483Z,41.34
2022-08-17T12:16:45.521Z,41.10
2022-08-17T12:17:45.562Z,40.74
2022-08-17T12:18:45.599Z,40.57
2022-08-17T12:19:45.638Z,40.24
2022-08-17T12:20:45.680Z,40.14
2022-08-17T12:21:45.715Z,39.85
2022-08-17T12:22:45.767Z,39.88
2022-08-17T12:23:45.788Z,39.75
2022-08-17T12:24:45.823Z,39.67
2022-08-17T12:25:45.863Z,39.56
2022-08-17T12:26:45.896Z,39.44
2022-08-17T12:28:04.608Z,39.34
2022-08-17T12:28:45.974Z,39.05
2022-08-17T12:29:46.010Z,38.95
2022-08-17T12:30:46.045Z,38.72
2022-08-17T12:31:46.082Z,38.68
2022-08-17T12:32:46.115Z,38.53
2022-08-17T12:33:46.153Z,38.32
2022-08-17T12:34:46.187Z,38.07
2022-08-17T12:35:46.223Z,38.12
2022-08-17T12:36:46.266Z,37.88
2022-08-17T12:37:46.310Z,37.82
2022-08-17T12:38:46.329Z,37.68
2022-08-17T12:39:46.375Z,37.58
2022-08-17T12:40:46.396Z,37.40
2022-08-17T12:41:46.432Z,37.34
2022-08-17T12:42:46.467Z,37.07
2022-08-17T12:43:46.501Z,36.94
2022-08-17T12:44:50.076Z,36.97
2022-08-17T12:45:46.569Z,36.94
2022-08-17T12:46:46.604Z,37.03
2022-08-17T12:47:46.706Z,37.09
2022-08-17T12:48:58.998Z,37.10
2022-08-17T12:49:46.708Z,37.15
2022-08-17T12:50:46.742Z,37.06
2022-08-17T12:51:46.778Z,37.07
2022-08-17T12:52:46.810Z,37.06